Terminal Aerodrome Forecast
Issued by NWS Birmingham, AL

Home | Current Version | Previous Version | Text Only | Print | Product List | Glossary On
Versions: 1 2 3 4 5 6 7 8 9 10 11 12 13 14 15 16 17 18 19 20
688
FTUS44 KBMX 211918 AAC
TAFBHM
TAF AMD
KBHM 211918Z 2119/2218 11011G16KT 2SM RA BR BKN040 OVC060
     FM212000 11008KT 4SM -RA BR OVC015
     FM220200 11003KT 4SM -RA BR OVC007
     FM220700 VRB03KT 2SM -RA BR OVC004
     FM221200 09004KT 4SM BR OVC007
     FM221700 07005KT P6SM OVC007=

USA.gov is the U.S. government's official web portal to all federal, state and local government web resources and services.